KGSO/GSO METAR and TAF weather

Enter ICAO airport designator
Station Type Date Time Source
KGSO METAR 2019/02/21 16:26 UTC NOAA

KGSO 211626Z 23007KT 10SM BKN005 BKN017 OVC040 09/08 A3009 RMK AO2 T00890083


Station Type Date Time Source
KGSO Decoded METAR 2019/02/21 16:26 UTC NOAA

PIEDMONT TRIAD INTERNATIONAL AIRPORT , NC, United States (KGSO) 36-06N 079-57W 275M
Feb 21, 2019 - 11:26 AM EST / 2019.02.21 1626 UTC
Wind: from the SW (230 degrees) at 8 MPH (7 KT):0
Visibility: 10 mile(s):0
Sky conditions: overcast
Temperature: 48.0 F (8.9 C)
Dew Point: 46.9 F (8.3 C)
Relative Humidity: 96%
Pressure (altimeter): 30.09 in. Hg (1018 hPa)
ob: KGSO 211626Z 23007KT 10SM BKN005 BKN017 OVC040 09/08 A3009 RMK AO2 T00890083
cycle: 16

Station Type Date Time Source
KGSO TAF 2019/02/21 16:24 UTC NOAA

TAF
AMD KGSO 211623Z 2116/2212 22006KT P6SM SCT010 BKN015 OVC040
TEMPO 2116/2118 SCT015 OVC035
FM211800 25004KT 3SM BR OVC015
FM220200 03006KT P6SM OVC050
FM220600 03006KT 5SM -RA BR OVC015
FM220900 04006KT 1 1/2SM -RA BR OVC004


Example: see airport list